map of IVL home
Great Circle Mapper logo
IVL - Airport
Location
City:  Ivalo, Finland
ICAO / IATA:EFIV / IVL

Details
Type:Airport (Aerodrome, Airfield)
Use:Public/Civil, International (customs port of entry)
Latitude:6836'26"N (68.607269)
Longitude:2724'19"E (27.405328)
Datum:WGS 1984
Elevation:481 ft (147 m)
Runways:2
Longest:8199 × 148 ft (2499 × 45 m), paved

Time
Time Zone:UTC+2 (DST+3)
Local Time:

Weather
METAR:EFIV 170620Z AUTO 20011KT 170V230 9999 FEW024 04/M01 Q0997

Related Locations
Nearby:
Farthest:NZWD: 11434 mi / 18402 km
McMurdo Station [Williams Field], Ross Island, AQ

Find:

   beyond  
but within

Other Information
Maps:
NOTAMs:
Links:
Sources:

  
flag of Finland   

Sectional Chart

Flight Planning
at skyvector.com

Satellite Image

Google Maps Satellite View

 

Copyright © 2004-2014 Karl L. Swartz. All rights reserved.
The Great Circle Mapper name and logo are trademarks of the Great Circle Mapper.
All other trademarks mentioned herein belong to their respective owners.
Please see credits for attibutions and further copyright information.

  Follow gcmap on Facebook Follow gcmap on Twitter

hCard Microformat

Geo Microformat